Time;durP1;ratioP1;P1;durP2;ratioP2;P2;SDS_P1;SDS_P2;PMS_P1;PMS_P2;Temp;Humidity;BMP_temperature;BMP_pressure;BME280_temperature;BME280_humidity;BME280_pressure;Samples;Min_cycle;Max_cycle;Signal;HPM_P1;HPM_P2
2023/06/28 00:01:24;;;;;;;0.80;0.80;;;24.10;70.00;;;;;;5051744;28;43785;-76
2023/06/28 00:03:53;;;;;;;1.03;1.03;;;24.00;69.70;;;;;;5051133;28;43498;-73
2023/06/28 00:06:22;;;;;;;0.90;0.90;;;24.00;70.40;;;;;;5051989;28;43384;-76
2023/06/28 00:08:50;;;;;;;0.90;0.90;;;24.00;70.30;;;;;;5031144;28;43389;-73
2023/06/28 00:11:18;;;;;;;1.00;1.00;;;24.10;70.00;;;;;;5048326;28;43752;-74
2023/06/28 00:13:46;;;;;;;0.83;0.83;;;24.20;69.60;;;;;;5052456;28;43385;-74
2023/06/28 00:16:14;;;;;;;0.90;0.90;;;24.30;69.30;;;;;;5036485;28;43414;-75
2023/06/28 00:18:44;;;;;;;0.90;0.90;;;24.30;69.00;;;;;;5033708;28;43913;-75
2023/06/28 00:21:14;;;;;;;0.90;0.90;;;24.30;69.10;;;;;;5051203;28;43740;-76
2023/06/28 00:23:42;;;;;;;0.83;0.83;;;24.30;69.30;;;;;;5050868;28;43457;-73
2023/06/28 00:26:10;;;;;;;1.00;1.00;;;24.20;69.60;;;;;;5033517;28;43404;-74
2023/06/28 00:28:39;;;;;;;0.90;0.90;;;24.20;69.70;;;;;;5052010;28;43410;-76
2023/06/28 00:31:09;;;;;;;0.90;0.90;;;24.20;69.80;;;;;;5050958;28;43842;-74
2023/06/28 00:33:37;;;;;;;0.80;0.80;;;24.10;69.60;;;;;;5026787;28;45050;-74
2023/06/28 00:36:05;;;;;;;0.70;0.70;;;24.10;69.60;;;;;;5050901;28;43385;-74
2023/06/28 00:38:36;;;;;;;0.90;0.90;;;24.00;69.60;;;;;;5027708;28;43412;-74
2023/06/28 00:41:04;;;;;;;0.80;0.80;;;24.00;69.80;;;;;;5032912;28;45801;-74
2023/06/28 00:43:33;;;;;;;0.80;0.80;;;24.00;70.00;;;;;;5032793;28;44666;-74
2023/06/28 00:46:02;;;;;;;0.90;0.90;;;23.90;69.90;;;;;;5032731;28;43538;-74
2023/06/28 00:48:30;;;;;;;0.80;0.80;;;23.90;70.00;;;;;;5033182;28;43598;-74
2023/06/28 00:50:58;;;;;;;1.00;1.00;;;23.90;70.10;;;;;;5050845;28;43860;-75
2023/06/28 00:53:26;;;;;;;1.27;0.90;;;23.90;70.10;;;;;;5053111;28;44758;-75
2023/06/28 00:55:56;;;;;;;1.00;1.00;;;23.80;70.70;;;;;;5050287;28;43439;-75
2023/06/28 00:58:24;;;;;;;1.00;1.00;;;23.90;70.70;;;;;;5033635;28;43453;-74
2023/06/28 01:00:52;;;;;;;1.00;1.00;;;24.00;70.10;;;;;;5050883;28;43600;-76
2023/06/28 01:03:20;;;;;;;0.70;0.70;;;24.20;69.60;;;;;;5030419;22;44329;-77
2023/06/28 01:05:49;;;;;;;0.80;0.80;;;24.40;69.00;;;;;;5038643;28;43889;-79
2023/06/28 01:08:17;;;;;;;0.97;0.97;;;24.60;68.40;;;;;;5040520;28;43602;-77
2023/06/28 01:10:45;;;;;;;0.98;0.98;;;24.80;67.70;;;;;;5060778;28;43834;-78
2023/06/28 01:13:15;;;;;;;0.93;0.93;;;25.00;67.20;;;;;;5041250;28;44720;-77
2023/06/28 01:15:43;;;;;;;0.77;0.77;;;25.20;66.70;;;;;;5042658;28;43464;-78
2023/06/28 01:18:11;;;;;;;0.80;0.80;;;25.20;66.30;;;;;;5040816;28;43502;-79
2023/06/28 01:20:40;;;;;;;0.70;0.70;;;25.30;66.10;;;;;;5057132;28;44285;-78
2023/06/28 01:23:10;;;;;;;1.00;1.00;;;25.30;65.90;;;;;;5058656;28;43386;-77
2023/06/28 01:25:38;;;;;;;0.82;0.82;;;25.30;65.80;;;;;;5058147;28;43519;-78
2023/06/28 01:28:06;;;;;;;0.82;0.82;;;25.30;65.70;;;;;;5062421;28;43540;-78
2023/06/28 01:30:37;;;;;;;0.88;0.88;;;25.30;65.90;;;;;;5060005;28;43671;-78
2023/06/28 01:33:05;;;;;;;1.00;1.00;;;25.20;66.20;;;;;;5048613;28;43433;-78
2023/06/28 01:35:33;;;;;;;0.70;0.70;;;25.00;66.70;;;;;;5057447;28;43432;-78
2023/06/28 01:38:01;;;;;;;0.90;0.90;;;24.90;67.20;;;;;;5042352;28;43474;-78
2023/06/28 01:40:35;;;;;;;1.00;1.00;;;24.80;67.50;;;;;;5059187;28;44035;-78
2023/06/28 01:43:06;;;;;;;0.80;0.80;;;24.70;67.60;;;;;;5053917;28;44912;-76
2023/06/28 01:45:36;;;;;;;0.90;0.90;;;24.60;68.10;;;;;;5064813;28;43993;-79
2023/06/28 01:48:05;;;;;;;0.97;0.97;;;24.50;68.60;;;;;;5035416;28;43500;-77
2023/06/28 01:50:33;;;;;;;0.90;0.90;;;24.50;68.70;;;;;;5040293;28;46066;-79
2023/06/28 01:53:02;;;;;;;0.93;0.93;;;24.40;68.60;;;;;;5040917;28;44749;-78
2023/06/28 01:55:32;;;;;;;0.90;0.90;;;24.30;68.90;;;;;;5043357;28;43424;-77
2023/06/28 01:58:00;;;;;;;0.80;0.80;;;24.30;69.30;;;;;;5066620;28;43602;-78
2023/06/28 02:00:28;;;;;;;0.83;0.83;;;24.30;69.30;;;;;;5040401;28;45924;-79
2023/06/28 02:02:56;;;;;;;0.90;0.90;;;24.40;69.10;;;;;;5043121;28;44619;-79
2023/06/28 02:05:24;;;;;;;0.80;0.80;;;24.50;68.80;;;;;;5066746;28;43324;-78
2023/06/28 02:07:53;;;;;;;1.10;1.10;;;24.50;68.50;;;;;;5046245;28;43420;-78
2023/06/28 02:10:22;;;;;;;0.90;0.90;;;24.50;68.40;;;;;;5050215;28;43885;-78
2023/06/28 02:12:55;;;;;;;1.10;1.10;;;24.50;68.50;;;;;;5030629;28;43940;-79
2023/06/28 02:15:24;;;;;;;0.87;0.87;;;24.40;68.70;;;;;;5053474;28;43415;-77
2023/06/28 02:17:56;;;;;;;1.10;1.10;;;24.40;68.80;;;;;;5044199;28;43459;-77
2023/06/28 02:20:24;;;;;;;1.00;1.00;;;24.40;68.90;;;;;;5041468;28;46003;-77
2023/06/28 02:22:52;;;;;;;0.93;0.93;;;24.30;68.90;;;;;;5056849;28;43448;-78
2023/06/28 02:25:20;;;;;;;0.77;0.77;;;24.30;69.20;;;;;;5056431;28;43425;-78
2023/06/28 02:27:48;;;;;;;0.90;0.90;;;24.20;69.60;;;;;;5059382;28;43388;-77
2023/06/28 02:30:18;;;;;;;0.70;0.70;;;24.30;69.60;;;;;;5052363;28;43624;-76
2023/06/28 02:32:46;;;;;;;1.00;1.00;;;24.30;69.40;;;;;;5063807;28;43519;-76
2023/06/28 02:35:18;;;;;;;0.90;0.90;;;24.40;69.10;;;;;;5041384;28;43385;-77
2023/06/28 02:37:46;;;;;;;1.07;1.07;;;24.40;68.90;;;;;;5067347;28;43428;-76
2023/06/28 02:40:14;;;;;;;1.00;1.00;;;24.40;69.00;;;;;;5053135;28;43814;-78
2023/06/28 02:42:44;;;;;;;0.87;0.87;;;24.30;69.00;;;;;;5061119;28;43443;-78
2023/06/28 02:45:13;;;;;;;0.90;0.90;;;24.30;69.60;;;;;;5035842;28;43428;-77
2023/06/28 02:47:43;;;;;;;0.80;0.80;;;24.20;69.50;;;;;;5042471;28;43498;-78
2023/06/28 02:50:11;;;;;;;0.90;0.90;;;24.20;69.50;;;;;;5035464;28;46029;-78
2023/06/28 02:52:53;;;;;;;0.90;0.90;;;24.10;69.40;;;;;;5045908;28;43363;-78
2023/06/28 02:55:21;;;;;;;0.80;0.80;;;24.10;70.10;;;;;;5050296;28;43500;-76
2023/06/28 02:57:50;;;;;;;1.00;1.00;;;24.10;70.10;;;;;;5059489;28;43549;-76
2023/06/28 03:00:19;;;;;;;1.10;1.10;;;24.10;70.00;;;;;;5043780;28;46317;-78
2023/06/28 03:02:48;;;;;;;1.00;1.00;;;24.10;69.90;;;;;;5034213;28;44958;-78
2023/06/28 03:05:21;;;;;;;0.90;0.90;;;24.00;70.30;;;;;;5042301;28;43399;-77
2023/06/28 03:07:49;;;;;;;0.90;0.90;;;24.00;70.20;;;;;;5045328;28;43833;-78
2023/06/28 03:10:18;;;;;;;0.90;0.90;;;24.10;70.00;;;;;;5045443;28;46321;-78
2023/06/28 03:12:46;;;;;;;0.80;0.80;;;24.20;69.80;;;;;;5034682;28;45917;-77
2023/06/28 03:15:14;;;;;;;1.07;1.07;;;24.30;69.40;;;;;;5037867;28;43380;-77
2023/06/28 03:17:43;;;;;;;0.93;0.93;;;24.40;69.30;;;;;;5045902;28;43445;-77
2023/06/28 03:20:15;;;;;;;0.87;0.87;;;24.30;69.20;;;;;;5043444;28;43966;-77
2023/06/28 03:22:44;;;;;;;0.87;0.87;;;24.30;69.20;;;;;;5045005;28;45048;-77
2023/06/28 03:25:12;;;;;;;0.90;0.90;;;24.20;69.60;;;;;;5041027;28;44028;-78
2023/06/28 03:27:40;;;;;;;0.80;0.80;;;24.20;69.60;;;;;;5044669;28;43467;-76
2023/06/28 03:30:09;;;;;;;0.90;0.90;;;24.20;69.70;;;;;;5043881;28;45779;-78
2023/06/28 03:32:37;;;;;;;0.90;0.90;;;24.10;69.60;;;;;;5039853;28;44615;-77
2023/06/28 03:35:07;;;;;;;1.10;1.10;;;24.10;70.10;;;;;;5050237;28;43953;-78
2023/06/28 03:37:37;;;;;;;0.90;0.90;;;24.10;70.20;;;;;;5045251;28;43997;-77
2023/06/28 03:40:07;;;;;;;0.80;0.80;;;24.00;70.10;;;;;;5039410;28;45928;-77
2023/06/28 03:42:37;;;;;;;1.00;1.00;;;24.00;70.00;;;;;;5060181;28;43925;-77
2023/06/28 03:45:07;;;;;;;0.90;0.90;;;24.00;70.50;;;;;;5044766;28;43468;-76
2023/06/28 03:47:38;;;;;;;0.80;0.80;;;24.00;70.50;;;;;;5037267;28;43468;-77
2023/06/28 03:50:07;;;;;;;0.97;0.97;;;24.10;70.10;;;;;;5060342;28;44191;-77
2023/06/28 03:52:38;;;;;;;1.20;1.20;;;24.20;69.90;;;;;;5042845;28;44032;-76
2023/06/28 03:55:07;;;;;;;1.33;1.33;;;24.30;69.60;;;;;;5058275;28;43475;-77
2023/06/28 03:57:35;;;;;;;1.30;1.30;;;24.30;69.50;;;;;;5044008;28;43423;-77
2023/06/28 04:00:07;;;;;;;2.03;1.30;;;24.30;69.50;;;;;;5066635;28;46243;-78
2023/06/28 04:02:40;;;;;;;1.83;1.73;;;24.20;69.60;;;;;;5054329;28;43929;-76
2023/06/28 04:05:09;;;;;;;3.50;2.33;;;24.10;69.80;;;;;;5061954;28;43341;-77
2023/06/28 04:07:38;;;;;;;1.90;1.80;;;24.10;69.80;;;;;;5062449;28;43356;-78
2023/06/28 04:10:10;;;;;;;4.90;2.53;;;24.10;69.80;;;;;;5039941;28;45740;-77
2023/06/28 04:12:38;;;;;;;3.20;2.90;;;24.10;69.90;;;;;;5042474;28;44976;-78
2023/06/28 04:15:09;;;;;;;2.67;2.43;;;24.00;70.30;;;;;;5045834;28;43352;-75
2023/06/28 04:17:37;;;;;;;3.40;2.40;;;24.00;70.20;;;;;;5035199;28;43432;-77
2023/06/28 04:20:07;;;;;;;3.57;2.40;;;24.00;70.20;;;;;;5046888;28;44131;-76
2023/06/28 04:22:36;;;;;;;4.77;3.07;;;24.00;70.00;;;;;;5036332;28;44420;-77
2023/06/28 04:25:06;;;;;;;6.90;2.90;;;23.90;70.40;;;;;;5047447;28;43462;-76
2023/06/28 04:27:34;;;;;;;7.90;3.37;;;24.00;70.30;;;;;;5055263;28;43500;-78
2023/06/28 04:30:02;;;;;;;5.03;3.33;;;24.10;69.90;;;;;;5061916;28;43612;-77
2023/06/28 04:32:30;;;;;;;4.07;3.07;;;24.20;69.80;;;;;;5043207;28;45075;-76
2023/06/28 04:34:59;;;;;;;3.77;2.60;;;24.30;69.30;;;;;;5055272;28;43452;-77
2023/06/28 04:37:27;;;;;;;4.50;3.00;;;24.30;69.20;;;;;;5032826;28;43455;-76
2023/06/28 04:39:55;;;;;;;5.07;3.53;;;24.30;69.00;;;;;;5051192;28;43673;-77
2023/06/28 04:42:25;;;;;;;4.10;3.17;;;24.20;69.10;;;;;;5059991;28;43476;-76
2023/06/28 04:44:59;;;;;;;4.57;3.77;;;24.20;69.50;;;;;;5041558;28;43531;-78
2023/06/28 04:47:28;;;;;;;5.83;4.10;;;24.20;69.50;;;;;;5061679;28;43485;-77
2023/06/28 04:49:56;;;;;;;5.23;3.77;;;24.10;69.50;;;;;;5043433;28;44192;-78
2023/06/28 04:52:25;;;;;;;4.90;3.60;;;24.10;69.50;;;;;;5060856;28;43479;-75
2023/06/28 04:54:53;;;;;;;3.47;3.17;;;24.00;70.00;;;;;;5043867;28;43357;-77
2023/06/28 04:57:21;;;;;;;3.67;3.30;;;24.00;70.00;;;;;;5062163;28;43448;-78
2023/06/28 04:59:50;;;;;;;3.77;3.37;;;24.00;70.00;;;;;;5062395;28;43615;-76
2023/06/28 05:02:24;;;;;;;3.50;3.30;;;24.00;69.80;;;;;;5063039;28;43400;-77
2023/06/28 05:04:53;;;;;;;3.97;3.30;;;24.00;70.40;;;;;;5048647;28;43458;-78
2023/06/28 05:07:21;;;;;;;3.60;3.20;;;23.90;70.30;;;;;;5043096;28;43602;-78
2023/06/28 05:09:49;;;;;;;4.53;3.60;;;23.90;70.40;;;;;;5065470;28;45731;-76
2023/06/28 05:12:17;;;;;;;4.33;3.50;;;23.90;70.10;;;;;;5063338;28;43407;-76
2023/06/28 05:14:45;;;;;;;4.20;3.80;;;23.90;70.40;;;;;;5042044;28;43425;-76
2023/06/28 05:17:14;;;;;;;3.50;3.20;;;23.90;70.60;;;;;;5060352;28;43380;-78
2023/06/28 05:19:43;;;;;;;3.70;3.40;;;24.00;70.40;;;;;;5040648;28;45731;-77
2023/06/28 05:22:11;;;;;;;4.37;3.10;;;24.10;70.00;;;;;;5040554;28;44912;-77
2023/06/28 05:24:39;;;;;;;3.80;3.40;;;24.20;69.80;;;;;;5060088;28;43389;-77
2023/06/28 05:27:07;;;;;;;3.27;3.00;;;24.30;69.50;;;;;;5062920;28;43558;-77
2023/06/28 05:29:37;;;;;;;3.60;3.30;;;24.20;69.30;;;;;;5042295;28;45397;-78
2023/06/28 05:32:06;;;;;;;3.63;3.33;;;24.20;69.50;;;;;;5044561;28;44952;-77
2023/06/28 05:34:35;;;;;;;3.50;3.20;;;24.10;69.70;;;;;;5061511;28;43438;-78
2023/06/28 05:37:04;;;;;;;3.57;3.27;;;24.10;69.90;;;;;;5045376;28;43938;-77
2023/06/28 05:39:32;;;;;;;3.23;3.03;;;24.10;70.00;;;;;;5065285;28;45719;-78
2023/06/28 05:42:00;;;;;;;3.50;3.20;;;24.00;69.70;;;;;;5038316;28;44765;-78
2023/06/28 05:44:28;;;;;;;3.83;3.17;;;24.00;70.30;;;;;;5040721;28;43686;-78
2023/06/28 05:46:56;;;;;;;3.20;2.90;;;24.00;70.40;;;;;;5040363;28;43385;-78
2023/06/28 05:49:24;;;;;;;3.33;3.13;;;24.00;70.40;;;;;;5062859;28;43602;-78
2023/06/28 05:51:53;;;;;;;3.20;3.00;;;24.00;70.30;;;;;;5040262;28;43498;-77
2023/06/28 05:54:21;;;;;;;3.27;3.07;;;23.90;70.10;;;;;;5040893;28;43531;-77
2023/06/28 05:56:49;;;;;;;3.50;3.30;;;23.90;70.70;;;;;;5054453;28;44065;-78
2023/06/28 05:59:18;;;;;;;3.03;2.83;;;23.90;70.50;;;;;;5059651;28;43607;-78
2023/06/28 06:01:46;;;;;;;3.13;2.93;;;24.00;70.20;;;;;;5041561;28;44639;-78
2023/06/28 06:04:14;;;;;;;3.43;3.17;;;24.10;69.80;;;;;;5061221;28;43413;-78
2023/06/28 06:06:43;;;;;;;3.23;3.03;;;24.20;70.30;;;;;;5037503;28;43682;-76
2023/06/28 06:09:12;;;;;;;2.77;2.67;;;24.20;69.40;;;;;;5039581;28;45044;-77
2023/06/28 06:11:41;;;;;;;3.00;2.90;;;24.20;69.50;;;;;;5057712;28;43349;-77
2023/06/28 06:14:09;;;;;;;3.27;3.07;;;24.10;69.60;;;;;;5043983;28;43395;-78
2023/06/28 06:16:38;;;;;;;2.97;2.80;;;24.10;70.00;;;;;;5065007;28;43382;-78
2023/06/28 06:19:06;;;;;;;3.00;2.80;;;24.10;70.00;;;;;;5046701;28;46403;-78
2023/06/28 06:21:34;;;;;;;3.00;2.80;;;24.10;70.00;;;;;;5039758;28;44689;-79
2023/06/28 06:24:07;;;;;;;3.20;3.00;;;24.00;69.80;;;;;;5042076;28;43523;-78
2023/06/28 06:26:36;;;;;;;2.60;2.50;;;24.00;70.50;;;;;;5065516;28;43359;-75
2023/06/28 06:29:05;;;;;;;2.77;2.57;;;23.90;70.40;;;;;;5046062;28;43812;-78
2023/06/28 06:31:33;;;;;;;2.87;2.67;;;23.90;70.40;;;;;;5064358;28;43428;-78
2023/06/28 06:34:01;;;;;;;3.10;2.90;;;23.90;70.20;;;;;;5041254;28;43565;-77
2023/06/28 06:36:29;;;;;;;3.53;2.77;;;23.90;70.80;;;;;;5062250;28;43453;-78
2023/06/28 06:38:57;;;;;;;3.07;2.87;;;23.90;70.80;;;;;;5068193;28;44231;-78
2023/06/28 06:41:25;;;;;;;2.80;2.60;;;23.90;70.40;;;;;;5058437;28;43431;-78
2023/06/28 06:43:55;;;;;;;2.73;2.60;;;24.10;70.20;;;;;;5043308;28;43787;-78
2023/06/28 06:46:23;;;;;;;2.57;2.47;;;24.10;69.80;;;;;;5065023;28;43717;-77
2023/06/28 06:48:51;;;;;;;2.63;2.50;;;24.10;69.70;;;;;;5063423;28;43839;-78
2023/06/28 06:51:19;;;;;;;2.73;2.63;;;24.10;69.80;;;;;;5065675;28;44003;-77
2023/06/28 06:53:47;;;;;;;2.83;2.73;;;24.10;69.70;;;;;;5044592;28;43423;-79
2023/06/28 06:56:20;;;;;;;2.77;2.67;;;24.00;70.30;;;;;;5059769;28;43395;-78
2023/06/28 06:58:49;;;;;;;2.20;2.20;;;24.00;70.30;;;;;;5057605;28;43779;-77
2023/06/28 07:01:18;;;;;;;2.50;2.40;;;24.00;70.30;;;;;;5055362;28;43492;-77
2023/06/28 07:03:46;;;;;;;2.40;2.30;;;23.90;70.10;;;;;;5047178;28;43530;-78
2023/06/28 07:06:14;;;;;;;2.63;2.53;;;23.90;70.80;;;;;;5046342;28;43892;-79
2023/06/28 07:08:42;;;;;;;2.80;2.60;;;23.90;70.80;;;;;;5044298;28;46026;-78
2023/06/28 07:11:10;;;;;;;2.60;2.50;;;23.90;70.70;;;;;;5042104;28;45171;-75
2023/06/28 07:13:39;;;;;;;2.50;2.40;;;23.90;70.40;;;;;;5065733;28;43345;-79
2023/06/28 07:16:07;;;;;;;2.43;2.33;;;23.80;70.80;;;;;;5057143;28;43575;-77
2023/06/28 07:18:36;;;;;;;2.40;2.27;;;23.80;70.90;;;;;;5062536;28;43552;-77
2023/06/28 07:21:05;;;;;;;2.40;2.30;;;23.90;70.80;;;;;;5059445;28;43466;-79
2023/06/28 07:23:33;;;;;;;2.47;2.37;;;24.00;70.40;;;;;;5042780;28;43381;-77
2023/06/28 07:26:01;;;;;;;2.60;2.50;;;24.10;70.10;;;;;;5050359;28;43431;-79
2023/06/28 07:28:29;;;;;;;2.37;2.27;;;24.10;69.80;;;;;;5063412;28;43691;-78
2023/06/28 07:30:59;;;;;;;2.33;2.30;;;24.10;69.70;;;;;;5048653;28;44667;-78
2023/06/28 07:33:27;;;;;;;2.20;2.10;;;24.10;69.80;;;;;;5060263;28;43397;-78
2023/06/28 07:35:56;;;;;;;2.30;2.20;;;24.00;70.00;;;;;;5064641;28;43747;-78
2023/06/28 07:38:24;;;;;;;2.83;2.63;;;24.00;70.30;;;;;;5043770;28;45680;-76
2023/06/28 07:40:53;;;;;;;2.80;2.60;;;24.00;70.30;;;;;;5051261;28;43353;-77
2023/06/28 07:43:21;;;;;;;2.30;2.20;;;24.00;70.10;;;;;;5045429;28;43463;-78
2023/06/28 07:45:50;;;;;;;2.07;2.07;;;23.90;70.40;;;;;;5044500;28;43431;-78
2023/06/28 07:48:18;;;;;;;2.10;2.10;;;23.90;70.80;;;;;;5042661;28;45014;-78
2023/06/28 07:50:47;;;;;;;2.13;2.03;;;23.90;70.70;;;;;;5066874;28;44295;-80
2023/06/28 07:53:16;;;;;;;2.40;2.30;;;23.80;70.40;;;;;;5041984;28;43472;-79
2023/06/28 07:55:44;;;;;;;2.40;2.30;;;23.80;70.50;;;;;;5047001;28;43819;-76
2023/06/28 07:58:12;;;;;;;2.40;2.30;;;23.80;71.00;;;;;;5040919;28;44919;-77
2023/06/28 08:00:40;;;;;;;2.27;2.17;;;23.80;70.90;;;;;;5057463;28;43448;-78
2023/06/28 08:03:09;;;;;;;2.47;2.37;;;23.90;70.70;;;;;;5057190;28;43996;-78
2023/06/28 08:05:38;;;;;;;2.27;2.27;;;24.00;70.30;;;;;;5060530;28;43380;-76
2023/06/28 08:08:07;;;;;;;1.97;1.97;;;24.10;70.00;;;;;;5060317;28;44064;-77
2023/06/28 08:10:36;;;;;;;2.37;2.27;;;24.10;70.50;;;;;;5042146;28;45019;-79
2023/06/28 08:13:04;;;;;;;1.90;1.90;;;24.10;70.00;;;;;;5041349;28;43476;-78
2023/06/28 08:15:34;;;;;;;2.50;2.40;;;24.00;69.90;;;;;;5046894;28;43399;-79
2023/06/28 08:18:02;;;;;;;2.10;2.00;;;23.90;70.40;;;;;;5044859;28;45822;-77
2023/06/28 08:20:31;;;;;;;1.93;1.93;;;23.90;70.40;;;;;;5045865;28;44290;-77
2023/06/28 08:22:59;;;;;;;2.03;2.00;;;23.90;70.40;;;;;;5061096;28;43890;-79
2023/06/28 08:25:27;;;;;;;2.50;2.40;;;23.90;70.40;;;;;;5065406;28;43372;-76
2023/06/28 08:27:56;;;;;;;2.13;2.10;;;23.80;70.90;;;;;;5042552;28;45220;-77
2023/06/28 08:30:24;;;;;;;2.07;2.07;;;23.80;70.90;;;;;;5041456;28;45103;-78
2023/06/28 08:32:52;;;;;;;1.83;1.83;;;23.80;70.80;;;;;;5041555;28;43404;-79
2023/06/28 08:35:21;;;;;;;1.90;1.90;;;23.80;70.50;;;;;;5044940;28;44049;-78
2023/06/28 08:37:52;;;;;;;1.90;1.87;;;23.70;70.90;;;;;;5061534;28;43963;-77
2023/06/28 08:40:20;;;;;;;1.87;1.87;;;23.70;71.20;;;;;;5058524;28;43491;-78
2023/06/28 08:42:48;;;;;;;2.00;2.00;;;23.80;71.30;;;;;;5063473;28;43412;-77
2023/06/28 08:45:17;;;;;;;2.00;2.00;;;23.90;70.60;;;;;;5063106;28;43373;-78
2023/06/28 08:47:45;;;;;;;2.07;2.07;;;24.00;70.20;;;;;;5041197;28;46029;-78
2023/06/28 08:50:13;;;;;;;2.13;2.03;;;24.00;70.00;;;;;;5062867;28;43377;-78
2023/06/28 08:52:42;;;;;;;2.10;2.00;;;24.00;70.00;;;;;;5064606;28;43473;-77
2023/06/28 08:55:10;;;;;;;1.90;1.90;;;24.00;69.90;;;;;;5061552;28;43432;-75
2023/06/28 08:57:40;;;;;;;1.80;1.80;;;23.90;70.40;;;;;;5058678;28;44307;-79
2023/06/28 09:00:10;;;;;;;2.10;2.00;;;23.90;70.50;;;;;;5063329;28;43572;-78
2023/06/28 09:02:41;;;;;;;1.90;1.90;;;23.90;70.50;;;;;;5038576;28;43796;-79
2023/06/28 09:05:10;;;;;;;1.80;1.80;;;23.90;70.40;;;;;;5035980;28;43390;-77
2023/06/28 09:07:39;;;;;;;1.87;1.87;;;23.80;70.90;;;;;;5042398;28;43708;-77
2023/06/28 09:10:08;;;;;;;2.00;2.00;;;23.80;71.00;;;;;;5041112;28;44274;-79
2023/06/28 09:12:37;;;;;;;1.90;1.90;;;23.90;70.90;;;;;;5031482;28;43450;-79
2023/06/28 09:15:06;;;;;;;1.80;1.80;;;24.00;70.60;;;;;;5045465;28;44112;-78
2023/06/28 09:17:34;;;;;;;1.87;1.87;;;24.00;70.30;;;;;;5034366;28;45537;-78
2023/06/28 09:20:15;;;;;;;1.70;1.70;;;24.00;70.20;;;;;;5040578;28;43468;-78
2023/06/28 09:22:43;;;;;;;1.70;1.70;;;24.00;70.10;;;;;;5034099;28;43558;-77
2023/06/28 09:25:11;;;;;;;1.73;1.70;;;23.90;70.00;;;;;;5030546;28;43584;-77
2023/06/28 09:27:39;;;;;;;1.70;1.70;;;23.90;70.80;;;;;;5038978;28;45303;-79
2023/06/28 09:30:26;;;;;;;1.70;1.70;;;23.90;70.80;;;;;;5035257;28;43369;-78
2023/06/28 09:32:54;;;;;;;1.80;1.80;;;23.80;70.50;;;;;;5038157;28;43459;-77
2023/06/28 09:35:24;;;;;;;1.60;1.60;;;23.80;70.50;;;;;;5035474;28;43444;-77
2023/06/28 09:37:57;;;;;;;1.70;1.70;;;23.70;71.10;;;;;;5041187;28;46338;-78
2023/06/28 09:40:26;;;;;;;1.70;1.70;;;23.70;71.00;;;;;;5040752;28;44433;-77
2023/06/28 09:42:54;;;;;;;1.90;1.90;;;23.70;70.90;;;;;;5040399;28;43490;-77
2023/06/28 09:45:26;;;;;;;1.87;1.87;;;23.70;70.60;;;;;;5038745;28;43515;-77
2023/06/28 09:48:07;;;;;;;1.80;1.80;;;23.70;71.30;;;;;;5038580;28;43705;-77
2023/06/28 09:50:37;;;;;;;1.60;1.60;;;23.70;71.30;;;;;;5046976;28;43462;-78
2023/06/28 09:53:09;;;;;;;1.60;1.60;;;23.70;71.10;;;;;;5042939;28;43389;-77
2023/06/28 09:55:41;;;;;;;1.77;1.77;;;23.70;70.70;;;;;;5043269;28;44049;-78
2023/06/28 09:58:10;;;;;;;2.10;2.10;;;23.70;71.40;;;;;;5047353;28;45103;-78
2023/06/28 10:00:38;;;;;;;1.87;1.87;;;23.70;71.40;;;;;;5037444;28;44695;-78
2023/06/28 10:03:07;;;;;;;1.97;1.97;;;23.80;71.20;;;;;;5040698;28;43472;-77
2023/06/28 10:05:38;;;;;;;1.40;1.40;;;23.90;70.80;;;;;;5044157;28;43328;-78
2023/06/28 10:08:08;;;;;;;1.50;1.50;;;24.00;70.30;;;;;;5041813;28;45991;-78
2023/06/28 10:10:39;;;;;;;1.60;1.60;;;24.00;70.10;;;;;;5041995;28;44815;-79
2023/06/28 10:13:08;;;;;;;1.70;1.70;;;24.00;70.00;;;;;;5042972;28;43358;-78
2023/06/28 10:15:41;;;;;;;1.70;1.70;;;24.00;70.00;;;;;;5043936;28;43542;-76
2023/06/28 10:18:09;;;;;;;1.63;1.63;;;23.90;70.50;;;;;;5041746;28;45166;-78
2023/06/28 10:20:41;;;;;;;1.40;1.40;;;23.90;70.60;;;;;;5041153;28;43562;-78
2023/06/28 10:23:10;;;;;;;1.70;1.70;;;23.90;70.60;;;;;;5037624;28;43382;-78
2023/06/28 10:25:39;;;;;;;1.77;1.77;;;23.90;70.40;;;;;;5038494;28;43649;-77
2023/06/28 10:28:07;;;;;;;1.63;1.63;;;23.80;70.90;;;;;;5040681;28;45394;-78
2023/06/28 10:30:36;;;;;;;1.67;1.67;;;23.80;71.00;;;;;;5043739;28;44036;-75
2023/06/28 10:33:04;;;;;;;1.50;1.50;;;23.80;71.00;;;;;;5046027;28;43466;-77
2023/06/28 10:35:32;;;;;;;1.50;1.50;;;23.70;70.60;;;;;;5043125;28;43377;-78
2023/06/28 10:38:05;;;;;;;1.60;1.60;;;23.70;70.90;;;;;;5045670;28;43604;-78
2023/06/28 10:40:33;;;;;;;1.60;1.60;;;23.70;71.30;;;;;;5040295;28;44382;-78
2023/06/28 10:43:01;;;;;;;1.60;1.60;;;23.80;71.20;;;;;;5041050;28;43403;-79
2023/06/28 10:45:33;;;;;;;1.40;1.40;;;23.90;70.80;;;;;;5042883;28;43349;-79
2023/06/28 10:48:01;;;;;;;1.60;1.60;;;24.00;70.60;;;;;;5045110;28;44201;-76
2023/06/28 10:50:30;;;;;;;1.50;1.50;;;24.00;70.30;;;;;;5040962;28;44788;-78
2023/06/28 10:53:00;;;;;;;1.67;1.67;;;24.00;70.20;;;;;;5039063;28;43400;-79
2023/06/28 10:55:33;;;;;;;1.50;1.50;;;24.00;70.00;;;;;;5040419;28;43553;-78
2023/06/28 10:58:05;;;;;;;1.40;1.40;;;23.90;70.60;;;;;;5035605;28;45431;-78
2023/06/28 11:00:42;;;;;;;1.70;1.70;;;23.90;70.80;;;;;;5037943;28;44457;-77
2023/06/28 11:03:11;;;;;;;1.60;1.60;;;23.90;70.70;;;;;;5058607;28;43470;-77
2023/06/28 11:05:40;;;;;;;1.50;1.50;;;23.80;70.30;;;;;;5067549;28;43475;-78
2023/06/28 11:08:10;;;;;;;1.70;1.70;;;23.80;71.00;;;;;;5039942;28;45313;-75
2023/06/28 11:10:40;;;;;;;1.60;1.60;;;23.70;71.00;;;;;;5043924;28;45114;-77
2023/06/28 11:13:11;;;;;;;1.60;1.60;;;23.80;70.80;;;;;;5043903;28;43954;-77
2023/06/28 11:15:43;;;;;;;1.50;1.50;;;23.90;70.60;;;;;;5041959;28;43483;-76
2023/06/28 11:18:12;;;;;;;1.50;1.50;;;23.90;70.40;;;;;;5065551;28;44042;-78
2023/06/28 11:20:54;;;;;;;1.60;1.60;;;23.90;70.30;;;;;;5058765;28;43470;-77
2023/06/28 11:23:29;;;;;;;1.63;1.63;;;23.80;70.60;;;;;;5043774;28;43489;-78
2023/06/28 11:26:01;;;;;;;1.63;1.57;;;23.80;70.50;;;;;;5040986;28;43527;-79
2023/06/28 11:28:30;;;;;;;1.53;1.43;;;23.80;70.40;;;;;;5065652;28;43764;-78
2023/06/28 11:31:12;;;;;;;1.50;1.50;;;23.80;70.20;;;;;;5067631;28;43449;-78
2023/06/28 11:33:40;;;;;;;1.60;1.60;;;23.70;70.70;;;;;;5056068;28;43847;-76
2023/06/28 11:36:09;;;;;;;1.67;1.67;;;23.70;70.60;;;;;;5057566;28;43507;-76
2023/06/28 11:38:37;;;;;;;1.50;1.50;;;23.80;70.40;;;;;;5048033;28;45671;-77
2023/06/28 11:41:07;;;;;;;1.47;1.47;;;23.90;70.10;;;;;;5060286;28;43761;-76
2023/06/28 11:43:35;;;;;;;1.60;1.60;;;23.90;70.00;;;;;;5068543;28;43391;-76
2023/06/28 11:46:03;;;;;;;1.70;1.70;;;23.90;69.80;;;;;;5040546;28;43506;-77
2023/06/28 11:48:31;;;;;;;1.40;1.40;;;23.80;70.20;;;;;;5040795;28;45291;-77
2023/06/28 11:50:59;;;;;;;1.77;1.67;;;23.80;70.20;;;;;;5062531;28;43546;-79
2023/06/28 11:53:28;;;;;;;1.30;1.30;;;23.80;70.10;;;;;;5052761;28;43442;-77
2023/06/28 11:55:57;;;;;;;1.70;1.70;;;23.80;70.00;;;;;;5044889;28;43472;-77
2023/06/28 11:58:31;;;;;;;1.60;1.50;;;23.80;70.20;;;;;;5067663;28;44061;-78
2023/06/28 12:00:59;;;;;;;1.63;1.63;;;23.70;70.40;;;;;;5066640;28;43479;-78
2023/06/28 12:03:34;;;;;;;1.60;1.60;;;23.70;70.40;;;;;;5042236;28;43444;-78
2023/06/28 12:06:05;;;;;;;1.50;1.50;;;23.70;70.20;;;;;;5064165;28;43427;-76
2023/06/28 12:08:34;;;;;;;1.40;1.40;;;23.70;70.30;;;;;;5042114;28;44046;-77
2023/06/28 12:11:03;;;;;;;1.50;1.50;;;23.60;70.80;;;;;;5044883;28;44033;-76
2023/06/28 12:13:33;;;;;;;1.60;1.60;;;23.70;70.70;;;;;;5048918;28;43505;-78
2023/06/28 12:16:11;;;;;;;1.43;1.43;;;23.80;70.40;;;;;;5059433;28;43933;-76
2023/06/28 12:18:56;;;;;;;1.53;1.50;;;23.90;69.80;;;;;;5056400;28;46387;-75
2023/06/28 12:21:24;;;;;;;1.53;1.53;;;24.00;69.70;;;;;;5040662;28;44999;-76
2023/06/28 12:23:52;;;;;;;1.60;1.60;;;24.00;69.60;;;;;;5035117;28;43403;-76
2023/06/28 12:26:22;;;;;;;1.50;1.50;;;23.90;69.50;;;;;;5060331;28;43392;-77
2023/06/28 12:28:52;;;;;;;1.63;1.63;;;23.90;70.00;;;;;;5044527;28;45714;-75
2023/06/28 12:31:20;;;;;;;1.60;1.60;;;23.80;70.00;;;;;;5058605;28;43436;-75
2023/06/28 12:33:53;;;;;;;1.50;1.50;;;23.80;70.00;;;;;;5043264;28;43432;-76
2023/06/28 12:36:21;;;;;;;1.57;1.47;;;23.70;69.80;;;;;;5063871;28;43413;-77
2023/06/28 12:38:50;;;;;;;1.60;1.60;;;23.70;70.30;;;;;;5043270;28;45740;-76
2023/06/28 12:41:18;;;;;;;1.53;1.53;;;23.70;70.60;;;;;;5055320;28;43394;-75
2023/06/28 12:43:57;;;;;;;1.70;1.70;;;23.70;70.50;;;;;;5039280;28;43446;-77
2023/06/28 12:46:26;;;;;;;1.60;1.60;;;23.70;70.20;;;;;;5052799;28;43438;-76
2023/06/28 12:48:55;;;;;;;1.47;1.47;;;23.60;70.20;;;;;;5031629;28;45927;-77
2023/06/28 12:51:23;;;;;;;1.60;1.60;;;23.60;70.90;;;;;;5039245;28;44731;-77
2023/06/28 12:53:52;;;;;;;1.50;1.50;;;23.70;70.90;;;;;;5037496;28;43472;-76
2023/06/28 12:56:20;;;;;;;1.70;1.70;;;23.70;70.30;;;;;;5044052;28;43602;-76
2023/06/28 12:58:48;;;;;;;1.43;1.43;;;23.90;70.10;;;;;;5041409;28;45358;-76